Time;durP1;ratioP1;P1;durP2;ratioP2;P2;SDS_P1;SDS_P2;PMS_P1;PMS_P2;Temp;Humidity;BMP_temperature;BMP_pressure;BME280_temperature;BME280_humidity;BME280_pressure;Samples;Min_cycle;Max_cycle;Signal;HPM_P1;HPM_P2
2023/12/05 00:01:45;;;;;;;1.10;1.00;;;0.60;99.90;;;;;;5114348;28;20066;-68
2023/12/05 00:04:10;;;;;;;1.20;1.10;;;0.60;99.90;;;;;;5114306;28;20138;-69
2023/12/05 00:06:37;;;;;;;1.10;1.00;;;0.60;99.90;;;;;;5114515;28;20391;-69
2023/12/05 00:09:03;;;;;;;1.30;1.20;;;0.60;99.90;;;;;;5114279;28;20036;-69
2023/12/05 00:11:29;;;;;;;1.20;1.10;;;0.60;99.90;;;;;;5114231;28;20051;-69
2023/12/05 00:13:55;;;;;;;1.20;1.10;;;0.60;99.90;;;;;;5114173;28;20046;-69
2023/12/05 00:16:20;;;;;;;1.40;1.30;;;0.60;99.90;;;;;;5114153;28;20104;-69
2023/12/05 00:18:49;;;;;;;1.20;1.10;;;0.50;99.90;;;;;;5114454;28;20548;-68
2023/12/05 00:21:18;;;;;;;1.20;1.10;;;0.60;99.90;;;;;;5114540;28;20059;-69
2023/12/05 00:23:43;;;;;;;1.20;1.10;;;0.60;99.90;;;;;;5114069;28;20118;-68
2023/12/05 00:26:09;;;;;;;1.27;1.17;;;0.60;99.90;;;;;;5114435;28;20123;-69
2023/12/05 00:28:35;;;;;;;1.20;1.10;;;0.50;99.90;;;;;;5112444;28;20031;-69
2023/12/05 00:31:00;;;;;;;1.35;1.25;;;0.50;99.90;;;;;;5114716;28;20039;-69
2023/12/05 00:33:26;;;;;;;1.20;1.10;;;0.50;99.90;;;;;;5114207;28;20039;-68
2023/12/05 00:35:52;;;;;;;1.13;1.02;;;0.50;99.90;;;;;;5114032;28;20080;-68
2023/12/05 00:38:18;;;;;;;1.20;1.10;;;0.50;99.90;;;;;;5113812;28;20528;-69
2023/12/05 00:40:43;;;;;;;1.30;1.20;;;0.50;99.90;;;;;;5114050;28;20281;-69
2023/12/05 00:43:09;;;;;;;1.20;1.10;;;0.60;99.90;;;;;;5113862;28;20058;-69
2023/12/05 00:45:34;;;;;;;1.30;1.20;;;0.60;99.90;;;;;;5117420;28;20058;-68
2023/12/05 00:48:00;;;;;;;1.20;1.10;;;0.60;99.90;;;;;;5118203;28;20455;-68
2023/12/05 00:50:25;;;;;;;1.75;1.35;;;0.60;99.90;;;;;;5118124;28;20039;-68
2023/12/05 00:52:51;;;;;;;1.20;1.10;;;0.50;99.90;;;;;;5117787;28;20043;-68
2023/12/05 00:55:17;;;;;;;1.30;1.20;;;0.50;99.90;;;;;;5117965;28;20035;-68
2023/12/05 00:57:42;;;;;;;1.20;1.10;;;0.50;99.90;;;;;;5117647;28;20352;-68
2023/12/05 01:00:11;;;;;;;1.20;1.10;;;0.50;99.90;;;;;;5117751;28;20172;-69
2023/12/05 01:02:37;;;;;;;1.58;1.48;;;0.50;99.90;;;;;;5117718;28;20044;-68
2023/12/05 01:05:02;;;;;;;1.63;1.35;;;0.50;99.90;;;;;;5118040;28;20061;-68
2023/12/05 01:07:28;;;;;;;1.20;1.10;;;0.50;99.90;;;;;;5116346;28;20526;-69
2023/12/05 01:09:54;;;;;;;1.23;1.13;;;0.50;99.90;;;;;;5117739;28;20121;-68
2023/12/05 01:12:20;;;;;;;1.27;1.17;;;0.50;99.90;;;;;;5117408;28;20480;-68
2023/12/05 01:14:46;;;;;;;1.30;1.20;;;0.50;99.90;;;;;;5117967;28;20031;-68
2023/12/05 01:17:11;;;;;;;1.30;1.20;;;0.50;99.90;;;;;;5117372;28;20118;-68
2023/12/05 01:19:38;;;;;;;3.30;3.00;;;0.50;99.90;;;;;;5117448;28;20100;-68
2023/12/05 01:22:04;;;;;;;1.20;1.10;;;0.50;99.90;;;;;;5117519;28;20079;-69
2023/12/05 01:24:29;;;;;;;1.30;1.20;;;0.50;99.90;;;;;;5117216;28;20467;-68
2023/12/05 01:26:55;;;;;;;1.30;1.20;;;0.50;99.90;;;;;;5117220;28;20313;-68
2023/12/05 01:29:21;;;;;;;1.50;1.40;;;0.50;99.90;;;;;;5116893;28;20091;-68
2023/12/05 01:31:47;;;;;;;1.20;1.10;;;0.50;99.90;;;;;;5117180;28;20069;-68
2023/12/05 01:34:12;;;;;;;1.50;1.40;;;0.50;99.90;;;;;;5117143;28;20032;-69
2023/12/05 01:36:38;;;;;;;1.20;1.10;;;0.50;99.90;;;;;;5117002;28;20459;-69
2023/12/05 01:39:03;;;;;;;1.20;1.10;;;0.50;99.90;;;;;;5115929;28;20387;-68
2023/12/05 01:41:29;;;;;;;1.60;1.50;;;0.50;99.90;;;;;;5116929;28;20039;-69
2023/12/05 01:43:54;;;;;;;1.38;1.27;;;0.50;99.90;;;;;;5116886;28;20475;-68
2023/12/05 01:46:21;;;;;;;1.20;1.10;;;0.50;99.90;;;;;;5116948;28;20038;-68
2023/12/05 01:48:47;;;;;;;1.20;1.10;;;0.50;99.90;;;;;;5117162;28;20121;-68
2023/12/05 01:51:15;;;;;;;1.50;1.40;;;0.50;99.90;;;;;;5117150;28;20689;-68
2023/12/05 01:53:42;;;;;;;1.40;1.30;;;0.50;99.90;;;;;;5116721;28;20122;-68
2023/12/05 01:56:09;;;;;;;;;;;0.50;99.90;;;;;;5116422;28;20096;-68
2023/12/05 01:58:37;;;;;;;1.55;1.45;;;0.60;99.90;;;;;;5116578;28;20032;-68
2023/12/05 02:01:04;;;;;;;1.40;1.30;;;0.60;99.90;;;;;;5116354;28;20459;-68
2023/12/05 02:03:34;;;;;;;1.30;1.20;;;0.60;99.90;;;;;;5116810;28;20383;-68
2023/12/05 02:06:00;;;;;;;1.80;1.38;;;0.60;99.90;;;;;;5116737;28;20040;-69
2023/12/05 02:08:29;;;;;;;1.30;1.20;;;0.60;99.90;;;;;;5116372;28;20036;-68
2023/12/05 02:10:55;;;;;;;1.27;1.17;;;2.80;99.90;;;;;;5116081;28;20032;-68
2023/12/05 02:13:20;;;;;;;1.35;1.25;;;0.60;99.90;;;;;;5116391;28;20042;-68
2023/12/05 02:15:52;;;;;;;1.40;1.30;;;0.50;99.90;;;;;;5116216;28;20385;-68
2023/12/05 02:18:24;;;;;;;1.48;1.38;;;0.60;99.90;;;;;;5116753;28;20042;-69
2023/12/05 02:21:05;;;;;;;1.20;1.10;;;0.60;99.90;;;;;;5116708;28;20375;-69
2023/12/05 02:23:48;;;;;;;1.27;1.17;;;0.60;99.90;;;;;;5116117;28;20039;-68
2023/12/05 02:26:27;;;;;;;1.40;1.30;;;0.50;99.90;;;;;;5116132;28;20047;-68
2023/12/05 02:28:53;;;;;;;1.42;1.33;;;0.50;99.90;;;;;;5115988;28;20459;-69
2023/12/05 02:31:19;;;;;;;1.35;1.25;;;0.60;99.90;;;;;;5116072;27;20046;-68
2023/12/05 02:33:45;;;;;;;1.30;1.20;;;0.60;99.90;;;;;;5116019;28;20043;-69
2023/12/05 02:36:16;;;;;;;1.30;1.20;;;0.60;99.90;;;;;;5116031;28;20073;-68
2023/12/05 02:39:12;;;;;;;1.40;1.30;;;0.60;99.90;;;;;;5116493;28;20401;-68
2023/12/05 02:41:42;;;;;;;1.30;1.20;;;0.60;99.90;;;;;;5116239;28;20119;-68
2023/12/05 02:44:15;;;;;;;1.63;1.52;;;0.60;99.90;;;;;;5115810;28;20043;-68
2023/12/05 02:46:43;;;;;;;9.68;5.03;;;0.60;99.90;;;;;;5116235;28;20382;-68
2023/12/05 02:49:10;;;;;;;1.45;1.35;;;0.60;99.90;;;;;;5116349;28;20409;-68
2023/12/05 02:51:36;;;;;;;1.30;1.20;;;0.60;99.90;;;;;;5115517;28;20036;-68
2023/12/05 02:54:05;;;;;;;1.85;1.75;;;0.60;99.90;;;;;;5115560;28;20467;-68
2023/12/05 02:56:31;;;;;;;1.40;1.30;;;0.60;99.90;;;;;;5115468;28;20050;-68
2023/12/05 02:58:57;;;;;;;2.65;2.45;;;0.60;99.90;;;;;;5115080;28;20032;-68
2023/12/05 03:01:23;;;;;;;1.50;1.40;;;0.60;99.90;;;;;;5116025;28;20035;-68
2023/12/05 03:03:48;;;;;;;1.30;1.20;;;0.60;99.90;;;;;;5115739;28;20039;-68
2023/12/05 03:06:14;;;;;;;1.30;1.20;;;0.60;99.90;;;;;;5114574;28;20090;-68
2023/12/05 03:08:39;;;;;;;1.30;1.20;;;0.60;99.90;;;;;;5114972;28;20042;-68
2023/12/05 03:11:05;;;;;;;1.52;1.42;;;0.60;99.90;;;;;;5114040;28;20091;-69
2023/12/05 03:13:31;;;;;;;5.97;4.28;;;0.60;99.90;;;;;;5114797;28;20081;-68
2023/12/05 03:15:56;;;;;;;1.10;1.00;;;0.60;99.90;;;;;;5115051;28;20161;-68
2023/12/05 03:18:24;;;;;;;1.20;1.10;;;0.60;99.90;;;;;;5114896;28;20168;-68
2023/12/05 03:20:49;;;;;;;1.75;1.65;;;0.60;99.90;;;;;;5114931;28;20044;-68
2023/12/05 03:23:18;;;;;;;2.80;1.75;;;0.60;99.90;;;;;;5115184;28;20058;-68
2023/12/05 03:25:44;;;;;;;1.20;1.10;;;0.60;99.90;;;;;;5114922;28;20050;-68
2023/12/05 03:28:09;;;;;;;1.10;1.00;;;0.60;99.90;;;;;;5114526;28;20399;-69
2023/12/05 03:30:35;;;;;;;1.40;1.30;;;0.60;99.90;;;;;;5115548;28;20047;-68
2023/12/05 03:33:01;;;;;;;1.20;1.10;;;0.60;99.90;;;;;;5114813;28;20552;-68
2023/12/05 03:35:26;;;;;;;1.88;1.77;;;1.30;99.90;;;;;;5115074;28;20035;-68
2023/12/05 03:37:52;;;;;;;1.17;1.08;;;0.60;99.90;;;;;;5114625;28;20122;-69
2023/12/05 03:40:17;;;;;;;1.30;1.20;;;0.60;99.90;;;;;;5114738;28;20370;-68
2023/12/05 03:42:43;;;;;;;1.27;1.17;;;0.60;99.90;;;;;;5114281;28;20092;-68
2023/12/05 03:45:09;;;;;;;1.20;1.10;;;0.60;99.90;;;;;;5114436;28;20043;-69
2023/12/05 03:47:34;;;;;;;1.20;1.10;;;0.60;99.90;;;;;;5114988;28;20043;-68
2023/12/05 03:50:00;;;;;;;1.20;1.10;;;0.60;99.90;;;;;;5114549;28;20115;-68
2023/12/05 03:52:25;;;;;;;1.40;1.30;;;0.60;99.90;;;;;;5114539;28;20138;-68
2023/12/05 03:54:51;;;;;;;1.33;1.23;;;0.60;99.90;;;;;;5113485;28;20039;-68
2023/12/05 03:57:16;;;;;;;1.30;1.20;;;0.60;99.90;;;;;;5114122;28;20109;-69
2023/12/05 03:59:42;;;;;;;1.20;1.10;;;0.60;99.90;;;;;;5114332;28;20490;-68
2023/12/05 04:02:07;;;;;;;2.10;2.00;;;1.70;99.90;;;;;;5114359;28;20043;-68
2023/12/05 04:04:33;;;;;;;1.30;1.20;;;0.60;99.90;;;;;;5114320;28;20468;-68
2023/12/05 04:06:59;;;;;;;1.15;1.05;;;0.60;99.90;;;;;;5114389;28;20090;-69
2023/12/05 04:09:24;;;;;;;1.30;1.20;;;0.80;99.90;;;;;;5114618;28;20039;-69
2023/12/05 04:11:50;;;;;;;1.20;1.10;;;1.60;99.90;;;;;;5114278;28;20039;-69
2023/12/05 04:14:15;;;;;;;1.40;1.30;;;0.70;99.90;;;;;;5114360;28;20089;-68
2023/12/05 04:16:41;;;;;;;1.30;1.20;;;0.60;99.90;;;;;;5114445;28;20035;-68
2023/12/05 04:19:06;;;;;;;1.55;1.45;;;0.60;99.90;;;;;;5113816;28;20035;-69
2023/12/05 04:21:32;;;;;;;1.20;1.10;;;0.70;99.90;;;;;;5114577;28;20139;-68
2023/12/05 04:23:58;;;;;;;1.10;1.00;;;0.70;99.90;;;;;;5114167;28;20039;-69
2023/12/05 04:26:23;;;;;;;1.73;1.63;;;0.70;99.90;;;;;;5114186;28;20367;-68
2023/12/05 04:28:49;;;;;;;1.30;1.20;;;0.70;99.90;;;;;;5113760;28;20093;-69
2023/12/05 04:31:15;;;;;;;1.30;1.20;;;0.70;99.90;;;;;;5114544;28;20047;-69
2023/12/05 04:33:41;;;;;;;1.30;1.20;;;0.70;99.90;;;;;;5113996;28;20065;-69
2023/12/05 04:36:08;;;;;;;1.30;1.20;;;0.70;99.90;;;;;;5114012;28;20422;-68
2023/12/05 04:38:35;;;;;;;1.20;1.10;;;0.70;99.90;;;;;;5113701;28;20050;-68
2023/12/05 04:41:01;;;;;;;1.45;1.35;;;0.70;99.90;;;;;;5113911;28;20048;-68
2023/12/05 04:43:27;;;;;;;1.50;1.40;;;0.70;99.90;;;;;;5114002;28;20038;-69
2023/12/05 04:45:53;;;;;;;1.30;1.20;;;0.60;99.90;;;;;;5113905;28;20032;-68
2023/12/05 04:48:18;;;;;;;1.60;1.50;;;0.60;99.90;;;;;;5113918;28;20043;-68
2023/12/05 04:50:44;;;;;;;3.05;1.40;;;0.60;99.90;;;;;;5114155;28;20087;-69
2023/12/05 04:53:09;;;;;;;1.20;1.10;;;0.60;99.90;;;;;;5113886;28;20395;-68
2023/12/05 04:55:35;;;;;;;2.08;1.95;;;0.60;99.90;;;;;;5113850;28;20161;-68
2023/12/05 04:58:01;;;;;;;1.20;1.10;;;0.60;99.90;;;;;;5113788;28;20043;-68
2023/12/05 05:00:26;;;;;;;1.20;1.10;;;0.60;99.90;;;;;;5113767;28;20043;-68
2023/12/05 05:02:52;;;;;;;1.38;1.27;;;0.60;99.90;;;;;;5114319;28;20071;-68
2023/12/05 05:05:18;;;;;;;1.40;1.30;;;0.70;99.90;;;;;;5114092;28;20043;-69
2023/12/05 05:07:43;;;;;;;1.20;1.10;;;0.70;99.90;;;;;;5113712;28;20122;-68
2023/12/05 05:10:09;;;;;;;1.40;1.30;;;0.70;99.90;;;;;;5113796;28;20042;-69
2023/12/05 05:12:35;;;;;;;1.88;1.77;;;0.70;99.90;;;;;;5113824;28;20036;-69
2023/12/05 05:15:00;;;;;;;1.23;1.13;;;0.70;99.90;;;;;;5113563;28;20040;-68
2023/12/05 05:17:26;;;;;;;1.60;1.50;;;0.70;99.90;;;;;;5114067;28;20042;-68
2023/12/05 05:19:52;;;;;;;1.85;1.75;;;0.70;99.90;;;;;;5113311;28;20044;-68
2023/12/05 05:22:17;;;;;;;1.20;1.10;;;0.80;99.90;;;;;;5113631;28;20066;-68
2023/12/05 05:24:43;;;;;;;3.47;3.17;;;0.80;99.90;;;;;;5113570;28;20459;-69
2023/12/05 05:27:09;;;;;;;1.40;1.30;;;0.80;99.90;;;;;;5113650;28;20104;-68
2023/12/05 05:29:34;;;;;;;1.40;1.30;;;0.80;99.90;;;;;;5113565;28;20047;-68
2023/12/05 05:32:00;;;;;;;3.80;2.45;;;0.80;99.90;;;;;;5117182;28;20084;-69
2023/12/05 05:34:26;;;;;;;1.20;1.10;;;0.90;99.90;;;;;;5117126;28;20043;-69
2023/12/05 05:36:51;;;;;;;1.30;1.20;;;0.80;99.90;;;;;;5117175;28;20168;-69
2023/12/05 05:39:17;;;;;;;1.40;1.30;;;0.80;99.90;;;;;;5117083;28;20467;-68
2023/12/05 05:41:42;;;;;;;1.40;1.30;;;0.80;99.90;;;;;;5117218;28;20046;-68
2023/12/05 05:44:08;;;;;;;1.20;1.10;;;0.80;99.90;;;;;;5116857;28;20039;-68
2023/12/05 05:46:33;;;;;;;1.20;1.10;;;0.80;99.90;;;;;;5116849;28;20086;-68
2023/12/05 05:48:59;;;;;;;1.20;1.10;;;0.90;99.90;;;;;;5116566;28;20401;-68
2023/12/05 05:51:25;;;;;;;1.30;1.20;;;0.80;99.90;;;;;;5116521;28;20039;-68
2023/12/05 05:53:51;;;;;;;1.23;1.13;;;0.80;99.90;;;;;;5117091;28;20371;-68
2023/12/05 05:56:16;;;;;;;1.40;1.30;;;0.80;99.90;;;;;;5116920;28;20070;-68
2023/12/05 05:58:42;;;;;;;1.20;1.10;;;0.80;99.90;;;;;;5116551;28;20349;-68
2023/12/05 06:01:10;;;;;;;1.30;1.20;;;0.90;99.90;;;;;;5116415;28;20031;-68
2023/12/05 06:03:36;;;;;;;1.15;1.05;;;0.80;99.90;;;;;;5116559;28;20106;-68
2023/12/05 06:06:02;;;;;;;1.20;1.10;;;0.80;99.90;;;;;;5116514;28;20506;-69
2023/12/05 06:08:27;;;;;;;1.30;1.20;;;0.80;99.90;;;;;;5116495;28;20077;-68
2023/12/05 06:10:53;;;;;;;1.20;1.10;;;0.80;99.90;;;;;;5116461;28;20078;-68
2023/12/05 06:13:19;;;;;;;1.20;1.10;;;0.80;99.90;;;;;;5116374;28;20468;-68
2023/12/05 06:15:45;;;;;;;1.70;1.52;;;0.80;99.90;;;;;;5116629;28;20044;-69
2023/12/05 06:18:15;;;;;;;1.38;1.27;;;0.80;99.90;;;;;;5116247;28;20031;-69
2023/12/05 06:20:41;;;;;;;1.50;1.40;;;0.80;99.90;;;;;;5116183;28;20044;-69
2023/12/05 06:23:07;;;;;;;1.50;1.40;;;0.80;99.90;;;;;;5116299;28;20047;-68
2023/12/05 06:25:33;;;;;;;1.30;1.20;;;0.90;99.90;;;;;;5115880;28;20127;-68
2023/12/05 06:27:58;;;;;;;1.40;1.30;;;0.90;99.90;;;;;;5116103;28;20043;-68
2023/12/05 06:30:24;;;;;;;1.85;1.75;;;0.80;99.90;;;;;;5116323;28;20356;-70
2023/12/05 06:32:49;;;;;;;1.30;1.20;;;0.90;99.90;;;;;;5115935;28;20031;-74
2023/12/05 06:35:15;;;;;;;2.20;1.20;;;0.80;99.90;;;;;;5115894;28;20051;-70
2023/12/05 06:37:40;;;;;;;1.17;1.08;;;0.90;99.90;;;;;;5114708;28;20063;-69
2023/12/05 06:40:07;;;;;;;1.20;1.10;;;0.80;99.90;;;;;;5115879;28;20459;-69
2023/12/05 06:42:32;;;;;;;2.13;1.97;;;0.80;99.90;;;;;;5115618;28;20036;-69
2023/12/05 06:44:58;;;;;;;1.42;1.33;;;0.80;99.90;;;;;;5115680;28;20285;-70
2023/12/05 06:47:23;;;;;;;1.20;1.10;;;0.80;99.90;;;;;;5116012;28;20044;-69
2023/12/05 06:49:49;;;;;;;1.58;1.48;;;0.70;99.90;;;;;;5114244;28;20123;-69
2023/12/05 06:52:15;;;;;;;1.45;1.35;;;0.80;99.90;;;;;;5115829;28;20046;-69
2023/12/05 06:54:40;;;;;;;1.30;1.20;;;0.80;99.90;;;;;;5115697;28;20046;-76
2023/12/05 06:57:06;;;;;;;1.85;1.75;;;0.80;99.90;;;;;;5115455;28;20348;-70
2023/12/05 06:59:32;;;;;;;1.13;1.02;;;0.80;99.90;;;;;;5115375;28;20071;-68
2023/12/05 07:01:58;;;;;;;1.20;1.10;;;0.70;99.90;;;;;;5116171;28;20127;-67
2023/12/05 07:04:23;;;;;;;1.10;1.00;;;0.70;99.90;;;;;;5115646;28;20485;-68
2023/12/05 07:06:49;;;;;;;1.17;1.08;;;0.70;99.90;;;;;;5115373;28;20040;-68
2023/12/05 07:09:14;;;;;;;1.63;1.52;;;0.70;99.90;;;;;;5115244;28;20082;-72
2023/12/05 07:11:40;;;;;;;1.88;1.25;;;0.70;99.90;;;;;;5115264;28;20053;-69
2023/12/05 07:14:07;;;;;;;1.20;1.10;;;0.70;99.90;;;;;;5114999;28;20035;-75
2023/12/05 07:16:35;;;;;;;1.30;1.20;;;0.70;99.90;;;;;;5115017;28;20044;-68
2023/12/05 07:19:00;;;;;;;;;;;0.70;99.90;;;;;;5115487;28;20035;-69
2023/12/05 07:21:26;;;;;;;2.10;1.58;;;0.70;99.90;;;;;;5113512;28;19938;-69
2023/12/05 07:23:51;;;;;;;1.20;1.10;;;0.70;99.90;;;;;;5112702;28;20089;-69
2023/12/05 07:26:17;;;;;;;1.20;1.10;;;0.70;99.90;;;;;;5114339;28;20061;-68
2023/12/05 07:28:44;;;;;;;1.30;1.20;;;0.70;99.90;;;;;;5113291;28;20032;-69
2023/12/05 07:31:10;;;;;;;2.72;2.53;;;0.70;99.90;;;;;;5113815;28;20130;-69
2023/12/05 07:33:36;;;;;;;1.30;1.20;;;0.60;99.90;;;;;;5113675;28;20110;-69
2023/12/05 07:36:04;;;;;;;1.20;1.10;;;0.60;99.90;;;;;;5113988;28;20080;-69
2023/12/05 07:38:30;;;;;;;1.30;1.20;;;0.60;99.90;;;;;;5113569;28;20059;-69
2023/12/05 07:40:55;;;;;;;1.20;1.10;;;0.60;99.90;;;;;;5113505;28;20472;-69
2023/12/05 07:43:21;;;;;;;1.30;1.20;;;0.60;99.90;;;;;;5114218;28;20486;-69
2023/12/05 07:45:46;;;;;;;1.40;1.30;;;0.60;99.90;;;;;;5114956;28;20100;-69
2023/12/05 07:48:12;;;;;;;1.30;1.20;;;0.70;99.90;;;;;;5115122;28;20086;-68
2023/12/05 07:50:37;;;;;;;1.30;1.20;;;0.60;99.90;;;;;;5114996;28;20044;-69
2023/12/05 07:53:03;;;;;;;1.48;1.38;;;0.60;99.90;;;;;;5114091;28;20035;-68
2023/12/05 07:55:28;;;;;;;1.30;1.20;;;0.60;99.90;;;;;;5114524;28;20040;-69
2023/12/05 07:57:54;;;;;;;1.50;1.40;;;0.60;99.90;;;;;;5114155;28;20047;-68
2023/12/05 08:00:20;;;;;;;2.88;2.67;;;0.70;99.90;;;;;;5114424;28;20082;-69
2023/12/05 08:02:46;;;;;;;1.20;1.10;;;0.60;99.90;;;;;;5114338;28;20424;-69
2023/12/05 08:05:13;;;;;;;2.50;2.30;;;0.70;99.90;;;;;;5114765;28;20086;-69
2023/12/05 08:07:39;;;;;;;2.40;2.20;;;0.70;99.90;;;;;;5114547;28;20040;-68
2023/12/05 08:10:08;;;;;;;1.27;1.15;;;0.70;99.90;;;;;;5114314;28;20050;-69
2023/12/05 08:12:34;;;;;;;1.20;1.10;;;0.70;99.90;;;;;;5114141;28;20042;-69
2023/12/05 08:15:01;;;;;;;1.20;1.10;;;0.80;99.90;;;;;;5114385;28;20393;-68
2023/12/05 08:17:26;;;;;;;2.15;2.05;;;0.70;99.90;;;;;;5114614;28;20039;-69
2023/12/05 08:19:53;;;;;;;1.20;1.10;;;0.70;99.90;;;;;;5114203;28;20047;-68
2023/12/05 08:22:18;;;;;;;4.13;3.83;;;0.70;99.90;;;;;;5114365;28;20459;-68
2023/12/05 08:24:44;;;;;;;1.40;1.30;;;0.70;99.90;;;;;;5114206;28;20051;-69
2023/12/05 08:27:10;;;;;;;1.88;1.77;;;0.70;99.90;;;;;;5114122;28;20438;-69
2023/12/05 08:29:35;;;;;;;1.65;1.55;;;0.70;99.90;;;;;;5114058;28;20063;-69
2023/12/05 08:32:02;;;;;;;1.38;1.20;;;0.70;99.90;;;;;;5114347;28;20039;-69
2023/12/05 08:34:28;;;;;;;1.30;1.20;;;0.70;99.90;;;;;;5114486;28;20409;-69
2023/12/05 08:36:53;;;;;;;1.20;1.10;;;0.70;99.90;;;;;;5114267;28;20046;-69
2023/12/05 08:39:19;;;;;;;1.20;1.10;;;0.70;99.90;;;;;;5113733;28;20036;-69
2023/12/05 08:41:44;;;;;;;1.15;1.05;;;2.00;99.90;;;;;;5113983;28;20036;-68
2023/12/05 08:44:10;;;;;;;4.72;4.32;;;0.70;99.90;;;;;;5113920;28;20092;-69
2023/12/05 08:46:35;;;;;;;2.97;2.78;;;0.70;99.90;;;;;;5114097;28;20034;-69
2023/12/05 08:49:01;;;;;;;13.65;4.97;;;0.80;99.90;;;;;;5113892;28;20045;-69
2023/12/05 08:51:27;;;;;;;1.70;1.60;;;0.70;99.90;;;;;;5113824;28;20455;-69
2023/12/05 08:53:52;;;;;;;1.20;1.10;;;0.70;99.90;;;;;;5113636;28;20122;-69
2023/12/05 08:56:18;;;;;;;1.20;1.10;;;0.80;99.90;;;;;;5113924;28;20043;-69
2023/12/05 08:58:43;;;;;;;1.33;1.23;;;0.80;99.90;;;;;;5113909;28;20036;-69
2023/12/05 09:01:12;;;;;;;1.20;1.10;;;0.80;99.90;;;;;;5113750;28;20560;-69
2023/12/05 09:03:38;;;;;;;1.10;1.00;;;0.80;99.90;;;;;;5113876;28;20042;-69
2023/12/05 09:06:03;;;;;;;1.30;1.20;;;0.80;99.90;;;;;;5116672;28;20122;-69
2023/12/05 09:08:29;;;;;;;1.10;1.00;;;0.80;99.90;;;;;;5117986;27;20031;-69
2023/12/05 09:10:57;;;;;;;1.95;1.85;;;0.80;99.90;;;;;;5117825;28;20036;-69
2023/12/05 09:13:23;;;;;;;1.67;1.58;;;0.70;99.90;;;;;;5117408;28;20076;-71
2023/12/05 09:15:49;;;;;;;1.40;1.30;;;0.80;99.90;;;;;;5117687;28;20054;-69
2023/12/05 09:18:15;;;;;;;1.35;1.25;;;0.80;99.90;;;;;;5117386;28;20371;-69
2023/12/05 09:20:41;;;;;;;9.07;6.68;;;0.70;99.90;;;;;;5117560;28;20062;-69
2023/12/05 09:23:07;;;;;;;2.13;2.00;;;0.80;99.90;;;;;;5116205;28;20348;-69
2023/12/05 09:25:32;;;;;;;1.38;1.20;;;0.80;99.90;;;;;;5117436;28;20112;-69
2023/12/05 09:27:58;;;;;;;1.35;1.25;;;0.80;99.90;;;;;;5117090;28;20490;-69
2023/12/05 09:30:24;;;;;;;1.20;1.10;;;0.80;99.90;;;;;;5117449;28;20043;-68
2023/12/05 09:32:49;;;;;;;1.30;1.20;;;0.80;99.90;;;;;;5117255;28;20056;-69
2023/12/05 09:35:15;;;;;;;1.20;1.10;;;0.80;99.90;;;;;;5117209;28;20043;-69
2023/12/05 09:37:40;;;;;;;1.85;1.75;;;0.80;99.90;;;;;;5117119;28;20169;-68
2023/12/05 09:40:07;;;;;;;1.95;1.85;;;0.80;99.90;;;;;;5117308;28;20038;-69
2023/12/05 09:42:35;;;;;;;1.10;1.00;;;0.80;99.90;;;;;;5116977;27;20051;-68
2023/12/05 09:45:03;;;;;;;1.30;1.20;;;0.80;99.90;;;;;;5117011;28;20114;-68
2023/12/05 09:47:30;;;;;;;1.30;1.20;;;0.80;99.90;;;;;;5116970;28;20039;-68
2023/12/05 09:49:56;;;;;;;1.92;1.83;;;0.80;99.90;;;;;;5117062;28;20443;-68
2023/12/05 09:52:22;;;;;;;1.35;1.25;;;0.80;99.90;;;;;;5116391;28;20413;-68
2023/12/05 09:54:49;;;;;;;2.07;1.97;;;0.80;99.90;;;;;;5116586;28;20160;-69
2023/12/05 09:57:15;;;;;;;1.85;1.75;;;0.90;99.90;;;;;;5116772;28;20054;-70
2023/12/05 09:59:41;;;;;;;1.20;1.10;;;0.90;99.90;;;;;;5116916;28;20421;-69
2023/12/05 10:02:07;;;;;;;1.20;1.10;;;0.90;99.90;;;;;;5116710;28;20339;-69
2023/12/05 10:04:44;;;;;;;1.40;1.30;;;0.80;99.90;;;;;;5116977;28;20043;-68
2023/12/05 10:07:13;;;;;;;1.27;1.17;;;0.90;99.90;;;;;;5116667;28;20032;-68
2023/12/05 10:09:41;;;;;;;1.20;1.10;;;0.80;99.90;;;;;;5116446;28;20035;-68
2023/12/05 10:12:08;;;;;;;1.10;1.00;;;0.90;99.90;;;;;;5116339;28;20074;-68
2023/12/05 10:14:34;;;;;;;1.20;1.10;;;0.80;99.90;;;;;;5116133;28;20044;-68
2023/12/05 10:17:02;;;;;;;3.67;3.33;;;0.80;99.90;;;;;;5115950;28;20040;-68
2023/12/05 10:19:29;;;;;;;1.25;1.15;;;0.80;99.90;;;;;;5115925;28;20463;-68
2023/12/05 10:21:55;;;;;;;1.52;1.20;;;0.80;99.90;;;;;;5116536;28;20480;-69
2023/12/05 10:24:21;;;;;;;1.13;1.02;;;0.80;99.90;;;;;;5116133;28;20040;-68
2023/12/05 10:26:47;;;;;;;1.20;1.10;;;0.80;99.90;;;;;;5116265;28;20035;-68
2023/12/05 10:29:14;;;;;;;1.23;1.13;;;0.70;99.90;;;;;;5116207;28;20046;-68
2023/12/05 10:31:40;;;;;;;1.33;1.23;;;0.90;99.90;;;;;;5114884;28;20383;-68
2023/12/05 10:34:06;;;;;;;1.10;1.00;;;0.70;99.90;;;;;;5116085;28;20081;-68
2023/12/05 10:36:32;;;;;;;1.13;1.03;;;0.70;99.90;;;;;;5116048;28;20138;-69
2023/12/05 10:38:58;;;;;;;1.30;1.20;;;0.80;99.90;;;;;;5115830;27;20118;-69
2023/12/05 10:41:24;;;;;;;2.35;1.20;;;0.80;99.90;;;;;;5114779;28;20056;-69
2023/12/05 10:43:51;;;;;;;1.20;1.10;;;0.80;99.90;;;;;;5115936;28;20043;-69
2023/12/05 10:46:17;;;;;;;1.20;1.10;;;0.80;99.90;;;;;;5115769;28;20043;-69
2023/12/05 10:48:45;;;;;;;1.45;1.35;;;0.80;99.90;;;;;;5115778;28;20114;-69
2023/12/05 10:51:10;;;;;;;1.30;1.20;;;0.80;99.90;;;;;;5115787;28;20043;-69
2023/12/05 10:53:36;;;;;;;1.10;1.00;;;0.80;99.90;;;;;;5114371;28;20127;-68
2023/12/05 10:56:15;;;;;;;1.88;1.75;;;0.80;99.90;;;;;;5115654;28;20040;-68
2023/12/05 10:58:44;;;;;;;1.10;1.00;;;0.80;99.90;;;;;;5115392;28;20040;-68
2023/12/05 11:01:10;;;;;;;1.40;1.30;;;0.80;99.90;;;;;;5115414;28;20036;-68
2023/12/05 11:03:41;;;;;;;1.70;1.52;;;0.80;99.90;;;;;;5115682;28;20075;-68
2023/12/05 11:06:08;;;;;;;1.30;1.20;;;0.80;99.90;;;;;;5115106;28;20468;-68
2023/12/05 11:08:37;;;;;;;1.10;1.00;;;0.80;99.90;;;;;;5115411;28;20039;-68
2023/12/05 11:11:04;;;;;;;2.05;1.85;;;0.80;99.90;;;;;;5114928;28;20479;-69
2023/12/05 11:13:33;;;;;;;;;;;0.80;99.90;;;;;;5115916;28;20032;-69
2023/12/05 11:16:12;;;;;;;1.20;1.10;;;0.80;99.90;;;;;;5115158;28;19922;-69
2023/12/05 11:18:42;;;;;;;1.67;1.58;;;0.80;99.90;;;;;;5112873;28;20047;-72
2023/12/05 11:21:21;;;;;;;1.30;1.20;;;0.80;99.90;;;;;;5115280;28;20040;-67
2023/12/05 11:24:27;;;;;;;1.50;1.40;;;0.80;99.90;;;;;;5114845;28;20512;-68
2023/12/05 11:27:11;;;;;;;1.63;1.52;;;0.80;99.90;;;;;;5114958;28;20032;-68
2023/12/05 11:30:11;;;;;;;1.20;1.10;;;0.90;99.90;;;;;;5115269;28;20387;-68
2023/12/05 11:32:46;;;;;;;1.40;1.30;;;0.90;99.90;;;;;;5114963;28;20042;-68
2023/12/05 11:35:19;;;;;;;1.20;1.10;;;0.90;99.90;;;;;;5114927;28;20043;-68
2023/12/05 11:37:50;;;;;;;1.20;1.10;;;0.90;99.90;;;;;;5115441;28;20058;-69
2023/12/05 11:40:16;;;;;;;1.67;1.58;;;1.00;99.90;;;;;;5115189;28;20440;-69
2023/12/05 11:43:04;;;;;;;2.17;2.08;;;0.90;99.90;;;;;;5114830;28;20070;-69
2023/12/05 11:45:30;;;;;;;4.78;4.43;;;0.90;99.90;;;;;;5114718;28;20043;-70
2023/12/05 11:47:58;;;;;;;1.58;1.48;;;1.00;99.90;;;;;;5114590;28;20039;-70
2023/12/05 11:50:23;;;;;;;1.20;1.10;;;1.00;99.90;;;;;;5114869;28;20119;-69
2023/12/05 11:52:49;;;;;;;1.10;1.00;;;1.00;99.90;;;;;;5114655;28;20134;-69
2023/12/05 11:55:15;;;;;;;1.10;1.00;;;1.00;99.90;;;;;;5114414;28;20034;-68
2023/12/05 11:57:41;;;;;;;1.10;1.00;;;1.00;99.90;;;;;;5114271;28;20039;-69
2023/12/05 12:00:09;;;;;;;1.10;1.00;;;1.00;99.90;;;;;;5114399;28;20045;-69
2023/12/05 12:02:40;;;;;;;1.33;1.23;;;1.00;99.90;;;;;;5114027;28;20086;-69
2023/12/05 12:05:09;;;;;;;3.28;1.20;;;1.10;99.90;;;;;;5114500;28;20467;-73
2023/12/05 12:07:53;;;;;;;1.10;1.00;;;1.10;99.90;;;;;;5114659;28;20046;-68
2023/12/05 12:10:19;;;;;;;1.15;1.10;;;1.10;99.90;;;;;;5114074;28;20039;-68
2023/12/05 12:12:46;;;;;;;1.75;1.65;;;1.10;99.90;;;;;;5114238;28;20039;-68
2023/12/05 12:15:15;;;;;;;4.88;4.20;;;1.10;99.90;;;;;;5114116;28;20130;-70
2023/12/05 12:17:45;;;;;;;1.95;1.42;;;1.10;99.90;;;;;;5114507;28;20115;-68
2023/12/05 12:20:15;;;;;;;1.58;1.48;;;1.10;99.90;;;;;;5113926;28;20471;-68
2023/12/05 12:22:43;;;;;;;2.00;1.85;;;1.00;99.90;;;;;;5113953;28;20047;-72
2023/12/05 12:25:13;;;;;;;1.02;0.98;;;1.10;99.90;;;;;;5113917;28;20043;-68
2023/12/05 12:27:39;;;;;;;1.50;1.40;;;1.10;99.90;;;;;;5114078;28;20040;-68
2023/12/05 12:30:11;;;;;;;1.40;1.30;;;1.00;99.90;;;;;;5114062;28;20047;-68
2023/12/05 12:32:51;;;;;;;1.30;1.20;;;1.00;99.90;;;;;;5114032;28;20039;-67
2023/12/05 12:35:17;;;;;;;1.83;1.73;;;1.10;99.90;;;;;;5114480;28;20043;-68
2023/12/05 12:37:43;;;;;;;1.20;1.10;;;1.00;99.90;;;;;;5113958;28;20043;-68
2023/12/05 12:40:10;;;;;;;1.20;1.10;;;1.00;99.90;;;;;;5117045;28;20039;-68
2023/12/05 12:42:35;;;;;;;1.30;1.20;;;1.00;99.90;;;;;;5118113;28;20061;-68
2023/12/05 12:45:01;;;;;;;1.50;1.40;;;1.00;99.90;;;;;;5118481;28;20043;-74
2023/12/05 12:47:26;;;;;;;2.10;2.00;;;1.00;99.90;;;;;;5118287;28;20047;-68
2023/12/05 12:49:53;;;;;;;1.05;0.95;;;1.00;99.90;;;;;;5118323;28;20039;-68
2023/12/05 12:52:18;;;;;;;1.95;1.85;;;1.00;99.90;;;;;;5118082;28;20082;-68
2023/12/05 12:54:44;;;;;;;1.40;1.30;;;1.00;99.90;;;;;;5118221;28;20082;-68
2023/12/05 12:57:10;;;;;;;1.30;1.20;;;1.00;99.90;;;;;;5117857;28;20032;-68